createdAt,value
2023-03-29T00:03:05.162Z,99884.16
2023-03-29T00:09:09.686Z,99873.94
2023-03-29T00:15:11.902Z,99886.31
2023-03-29T00:21:15.379Z,99919.78
2023-03-29T00:27:20.872Z,99928.00
2023-03-29T00:33:26.359Z,99932.63
2023-03-29T00:39:29.910Z,99927.91
2023-03-29T00:45:32.011Z,99752.91
2023-03-29T00:51:38.826Z,99800.91
2023-03-29T00:57:47.345Z,99923.38
2023-03-29T01:03:54.737Z,99920.75
2023-03-29T01:10:06.459Z,99951.59
2023-03-29T01:16:13.227Z,99952.25
2023-03-29T01:22:34.399Z,99961.84
2023-03-29T01:28:49.639Z,99947.38
2023-03-29T01:35:02.382Z,99940.31
2023-03-29T01:41:05.068Z,99958.22
2023-03-29T01:47:47.575Z,99897.72
2023-03-29T01:54:00.035Z,99921.81
2023-03-29T02:00:08.298Z,99974.97
2023-03-29T02:06:17.082Z,99979.34
2023-03-29T02:12:20.069Z,99978.84
2023-03-29T02:18:21.811Z,99982.03
2023-03-29T02:24:26.397Z,99981.59
2023-03-29T02:30:36.951Z,99981.59
2023-03-29T02:36:52.551Z,99993.13
2023-03-29T02:42:56.375Z,99971.16
2023-03-29T02:48:59.218Z,100007.34
2023-03-29T02:55:03.363Z,99979.25
2023-03-29T03:01:07.155Z,100010.50
2023-03-29T03:07:09.467Z,99922.50
2023-03-29T03:13:11.771Z,100009.03
2023-03-29T03:19:14.625Z,100017.00
2023-03-29T03:25:19.611Z,99956.16
2023-03-29T03:31:21.865Z,100010.88
2023-03-29T03:37:23.751Z,99984.69
2023-03-29T03:43:26.191Z,99990.84
2023-03-29T03:49:28.257Z,100008.69
2023-03-29T03:55:32.633Z,99991.31
2023-03-29T04:01:35.608Z,100041.59
2023-03-29T04:07:37.441Z,100069.06
2023-03-29T04:13:39.385Z,100058.09
2023-03-29T04:19:41.163Z,100063.50
2023-03-29T04:25:43.276Z,100076.47
2023-03-29T04:31:45.123Z,100080.53
2023-03-29T04:37:46.927Z,100030.16
2023-03-29T04:43:48.905Z,100064.03
2023-03-29T04:49:50.934Z,100092.09
2023-03-29T04:55:55.739Z,100093.88
2023-03-29T05:01:58.131Z,100038.91
2023-03-29T05:07:59.944Z,100116.16
2023-03-29T05:14:03.501Z,100095.81
2023-03-29T05:20:13.256Z,100028.84
2023-03-29T05:26:15.556Z,100111.25
2023-03-29T05:32:17.693Z,100128.09
2023-03-29T05:38:19.483Z,100110.09
2023-03-29T05:44:21.307Z,100144.69
2023-03-29T05:50:23.485Z,100126.38
2023-03-29T05:56:26.284Z,100153.03
2023-03-29T06:02:28.770Z,100155.72
2023-03-29T06:08:32.084Z,100155.03
2023-03-29T06:14:34.093Z,100123.50
2023-03-29T06:20:37.120Z,100162.34
2023-03-29T06:26:38.850Z,100084.44
2023-03-29T06:32:41.411Z,100205.66
2023-03-29T06:38:45.602Z,100217.16
2023-03-29T06:44:47.978Z,100202.66
2023-03-29T06:50:49.895Z,100207.38
2023-03-29T06:56:52.465Z,100187.09
2023-03-29T07:02:56.396Z,100187.56
2023-03-29T07:09:01.027Z,100222.19
2023-03-29T07:15:03.358Z,100084.44
2023-03-29T07:21:06.625Z,100160.47
2023-03-29T07:27:09.442Z,100203.00
2023-03-29T07:33:13.713Z,100234.97
2023-03-29T07:39:16.038Z,100207.53
2023-03-29T07:45:26.879Z,100240.00
2023-03-29T07:51:31.013Z,100234.00
2023-03-29T07:57:33.506Z,100218.47
2023-03-29T08:03:35.987Z,100230.91
2023-03-29T08:09:39.699Z,100190.78
2023-03-29T08:15:46.257Z,100214.66
2023-03-29T08:21:48.802Z,100239.41
2023-03-29T08:27:50.771Z,100257.91
2023-03-29T08:33:55.672Z,100211.44
2023-03-29T08:39:58.829Z,100256.97
2023-03-29T08:46:08.399Z,100250.72
2023-03-29T08:52:38.908Z,100253.66
2023-03-29T08:58:44.579Z,100213.47
2023-03-29T09:04:50.917Z,100230.94
2023-03-29T09:11:18.476Z,100295.84
2023-03-29T09:17:33.342Z,100303.66
2023-03-29T09:24:16.601Z,100221.41
2023-03-29T09:30:37.167Z,100318.69
2023-03-29T09:37:12.785Z,100308.41
2023-03-29T09:43:28.335Z,100316.94
2023-03-29T09:49:40.126Z,100273.13
2023-03-29T09:55:46.293Z,100234.84
2023-03-29T10:01:49.986Z,100278.81
2023-03-29T10:07:56.834Z,100207.94
2023-03-29T10:14:06.789Z,100278.66
2023-03-29T10:20:16.317Z,100228.72
2023-03-29T10:26:44.975Z,100225.78
2023-03-29T10:32:47.472Z,100272.00
2023-03-29T10:38:51.955Z,100225.69
2023-03-29T10:44:59.510Z,100290.75
2023-03-29T10:51:04.176Z,100287.59
2023-03-29T10:57:12.472Z,100210.66
2023-03-29T11:03:33.043Z,100289.44
2023-03-29T11:09:46.513Z,100275.50
2023-03-29T11:16:05.080Z,100239.88
2023-03-29T11:22:13.501Z,100250.44
2023-03-29T11:28:39.091Z,100236.31
2023-03-29T11:35:12.390Z,100218.69
2023-03-29T11:41:21.194Z,100233.03
2023-03-29T11:47:28.740Z,100221.31
2023-03-29T11:54:04.944Z,100250.50
2023-03-29T12:00:16.807Z,100232.03
2023-03-29T12:06:45.650Z,100242.66
2023-03-29T12:13:02.337Z,100223.69
2023-03-29T12:19:29.514Z,100236.69
2023-03-29T12:25:44.998Z,100237.66
2023-03-29T12:31:53.559Z,100240.34
2023-03-29T12:38:25.131Z,100187.81
2023-03-29T12:44:27.592Z,100230.13
2023-03-29T12:50:43.091Z,100231.47
2023-03-29T12:57:00.719Z,100225.84
2023-03-29T13:03:06.832Z,100176.66
2023-03-29T13:09:23.468Z,100213.03
2023-03-29T13:15:28.239Z,100211.09
2023-03-29T13:21:41.710Z,100210.41
2023-03-29T13:27:59.218Z,100208.91
2023-03-29T13:34:10.753Z,100204.44
2023-03-29T13:40:45.309Z,100217.41
2023-03-29T13:46:48.862Z,100182.59
2023-03-29T13:53:10.455Z,100217.28
2023-03-29T13:59:30.952Z,100216.81
2023-03-29T14:05:37.444Z,100163.81
2023-03-29T14:11:48.955Z,100182.03
2023-03-29T14:18:00.716Z,100205.56
2023-03-29T14:24:03.932Z,100201.09
2023-03-29T14:30:28.510Z,100206.50
2023-03-29T14:36:32.631Z,100205.13
2023-03-29T14:42:34.716Z,100213.88
2023-03-29T14:48:37.190Z,100208.50
2023-03-29T14:54:45.805Z,100210.16
2023-03-29T15:00:50.803Z,100178.16
2023-03-29T15:06:53.142Z,100192.38
2023-03-29T15:12:56.146Z,100204.41
2023-03-29T15:18:58.819Z,100203.34
2023-03-29T15:25:02.857Z,100203.09
2023-03-29T15:31:12.208Z,100207.84
2023-03-29T15:37:14.786Z,100219.81
2023-03-29T15:43:17.255Z,100222.38
2023-03-29T15:49:19.778Z,100211.78
2023-03-29T15:55:24.197Z,100213.03
2023-03-29T16:01:36.716Z,100244.63
2023-03-29T16:07:39.190Z,100243.09
2023-03-29T16:13:44.695Z,100256.84
2023-03-29T16:19:46.451Z,100214.56
2023-03-29T16:25:48.228Z,100216.78
2023-03-29T16:31:50.697Z,100265.91
2023-03-29T16:37:52.559Z,100235.66
2023-03-29T16:43:56.142Z,100289.25
2023-03-29T16:49:58.577Z,100113.09
2023-03-29T16:56:01.176Z,100296.00
2023-03-29T17:02:03.486Z,100274.13
2023-03-29T17:08:06.139Z,100282.66
2023-03-29T17:14:09.384Z,100296.53
2023-03-29T17:20:13.896Z,100251.53
2023-03-29T17:26:18.220Z,100330.56
2023-03-29T17:32:20.400Z,100339.94
2023-03-29T17:38:22.723Z,100346.16
2023-03-29T17:44:24.884Z,100359.78
2023-03-29T17:50:29.316Z,100360.97
2023-03-29T17:56:32.769Z,100342.34
2023-03-29T18:02:34.812Z,100377.50
2023-03-29T18:08:42.137Z,100386.97
2023-03-29T18:14:44.180Z,100389.22
2023-03-29T18:20:47.672Z,100365.56
2023-03-29T18:26:50.152Z,100368.91
2023-03-29T18:32:52.695Z,100383.19
2023-03-29T18:38:55.977Z,100370.66
2023-03-29T18:44:58.571Z,100356.28
2023-03-29T18:51:01.869Z,100367.47
2023-03-29T18:57:08.545Z,100407.38
2023-03-29T19:03:12.067Z,100355.13
2023-03-29T19:09:14.465Z,100403.63
2023-03-29T19:15:16.934Z,100434.19
2023-03-29T19:21:21.425Z,100428.81
2023-03-29T19:27:25.758Z,100415.13
2023-03-29T19:33:31.411Z,100418.91
2023-03-29T19:39:33.883Z,100427.78
2023-03-29T19:45:38.329Z,100399.28
2023-03-29T19:51:41.820Z,100340.22
2023-03-29T19:57:44.325Z,100403.88
2023-03-29T20:03:47.778Z,100410.75
2023-03-29T20:09:49.697Z,100434.94
2023-03-29T20:15:51.775Z,100438.22
2023-03-29T20:21:57.807Z,100423.56
2023-03-29T20:28:00.799Z,100454.06
2023-03-29T20:34:03.208Z,100437.38
2023-03-29T20:40:06.710Z,100417.88
2023-03-29T20:46:19.219Z,100385.31
2023-03-29T20:52:23.756Z,100423.56
2023-03-29T20:58:28.222Z,100323.09
2023-03-29T21:04:31.650Z,100444.63
2023-03-29T21:10:34.109Z,100394.38
2023-03-29T21:16:36.594Z,100338.38
2023-03-29T21:22:40.080Z,100448.41
2023-03-29T21:28:43.512Z,100453.28
2023-03-29T21:34:45.973Z,100378.38
2023-03-29T21:40:48.487Z,100420.22
2023-03-29T21:46:50.963Z,100455.69
2023-03-29T21:52:53.424Z,100453.31
2023-03-29T21:58:58.193Z,100382.66
2023-03-29T22:05:00.191Z,100434.31
2023-03-29T22:11:08.210Z,100445.97
2023-03-29T22:17:10.450Z,100430.88
2023-03-29T22:23:13.417Z,100264.38
2023-03-29T22:29:15.248Z,100422.56
2023-03-29T22:35:17.133Z,100452.22
2023-03-29T22:41:21.924Z,100451.03
2023-03-29T22:47:23.696Z,100455.72
2023-03-29T22:53:26.040Z,100453.91
2023-03-29T22:59:27.992Z,100436.59
2023-03-29T23:05:29.741Z,100407.50
2023-03-29T23:11:32.980Z,100463.50
2023-03-29T23:17:35.084Z,100446.69
2023-03-29T23:23:37.446Z,100448.72
2023-03-29T23:29:39.301Z,100450.34
2023-03-29T23:35:41.394Z,100435.25
2023-03-29T23:41:43.131Z,100449.94
2023-03-29T23:47:45.938Z,100465.75
2023-03-29T23:53:48.868Z,100436.41
2023-03-29T23:59:52.806Z,100468.34
